Time;durP1;ratioP1;P1;durP2;ratioP2;P2;SDS_P1;SDS_P2;PMS_P1;PMS_P2;Temp;Humidity;BMP_temperature;BMP_pressure;BME280_temperature;BME280_humidity;BME280_pressure;Samples;Min_cycle;Max_cycle;Signal;HPM_P1;HPM_P2
2022/05/02 00:00:32;;;;;;;15.88;10.02;;;12.90;99.90;;;;;;5033967;28;20025;-73
2022/05/02 00:02:58;;;;;;;15.40;10.05;;;12.80;99.90;;;;;;5034127;28;20052;-73
2022/05/02 00:05:24;;;;;;;14.77;9.57;;;12.80;99.90;;;;;;5033795;28;20053;-74
2022/05/02 00:07:50;;;;;;;15.52;9.40;;;12.80;99.90;;;;;;5033734;28;20539;-75
2022/05/02 00:10:16;;;;;;;13.57;10.07;;;12.80;99.90;;;;;;5033769;28;20021;-75
2022/05/02 00:12:42;;;;;;;16.75;10.70;;;12.60;99.90;;;;;;5034208;28;20021;-74
2022/05/02 00:15:08;;;;;;;17.67;10.68;;;12.50;99.90;;;;;;5034166;28;20477;-72
2022/05/02 00:20:18;;;;;;;15.77;11.55;;;12.50;99.90;;;;;;5032766;28;20040;-74
2022/05/02 00:22:45;;;;;;;16.35;10.65;;;12.40;99.90;;;;;;5033563;28;20390;-73
2022/05/02 00:25:10;;;;;;;15.63;10.70;;;12.40;99.90;;;;;;5033195;28;20049;-74
2022/05/02 00:27:39;;;;;;;16.55;11.02;;;12.40;99.90;;;;;;5033690;28;20030;-75
2022/05/02 00:30:07;;;;;;;16.42;11.13;;;12.30;99.90;;;;;;5033937;28;20018;-75
2022/05/02 00:32:32;;;;;;;19.70;11.10;;;12.30;99.90;;;;;;5033396;28;20390;-72
2022/05/02 00:34:58;;;;;;;15.73;11.07;;;12.40;99.90;;;;;;5033595;28;20030;-74
2022/05/02 00:37:24;;;;;;;19.13;11.68;;;12.40;99.90;;;;;;5033326;28;20033;-74
2022/05/02 00:39:50;;;;;;;17.50;11.88;;;12.30;99.90;;;;;;5033304;28;20025;-73
2022/05/02 00:42:15;;;;;;;19.08;11.57;;;12.20;99.90;;;;;;5033497;28;20104;-73
2022/05/02 00:44:44;;;;;;;18.65;11.80;;;12.20;99.90;;;;;;5033248;28;20088;-75
2022/05/02 00:47:10;;;;;;;18.63;11.90;;;12.20;99.90;;;;;;5033165;28;20029;-75
2022/05/02 00:49:39;;;;;;;14.90;10.40;;;12.20;99.90;;;;;;5033173;28;20092;-76
2022/05/02 00:52:05;;;;;;;16.58;11.20;;;12.30;99.90;;;;;;5032882;28;20026;-73
2022/05/02 00:54:32;;;;;;;16.55;11.70;;;12.20;99.90;;;;;;5033217;28;20025;-75
2022/05/02 00:56:59;;;;;;;17.88;11.40;;;12.20;99.90;;;;;;5033130;28;20017;-70
2022/05/02 00:59:25;;;;;;;14.73;10.80;;;12.30;99.90;;;;;;5033038;28;20021;-74
2022/05/02 01:01:51;;;;;;;15.80;10.07;;;12.30;99.90;;;;;;5033596;28;20142;-73
2022/05/02 01:04:17;;;;;;;16.88;11.77;;;12.30;99.90;;;;;;5033028;28;20026;-75
2022/05/02 01:09:27;;;;;;;16.75;10.65;;;12.30;99.90;;;;;;5033565;28;20033;-72
2022/05/02 01:11:55;;;;;;;17.48;11.18;;;12.20;99.90;;;;;;5032923;28;20017;-73
2022/05/02 01:14:20;;;;;;;17.05;11.45;;;12.20;99.90;;;;;;5032990;28;20025;-73
2022/05/02 01:16:46;;;;;;;14.98;10.90;;;12.20;99.90;;;;;;5032816;28;20509;-75
2022/05/02 01:19:12;;;;;;;18.50;11.82;;;12.20;99.90;;;;;;5032919;28;20493;-73
2022/05/02 01:21:38;;;;;;;21.27;11.45;;;12.10;99.90;;;;;;5033418;28;20029;-74
2022/05/02 01:24:04;;;;;;;17.42;11.27;;;12.10;99.90;;;;;;5032899;28;20128;-71
2022/05/02 01:26:30;;;;;;;19.45;12.93;;;12.10;99.90;;;;;;5033256;28;20151;-73
2022/05/02 01:29:00;;;;;;;16.23;11.07;;;12.20;99.90;;;;;;5032787;28;20022;-75
2022/05/02 01:31:27;;;;;;;17.85;12.10;;;12.20;99.90;;;;;;5034555;28;20021;-74
2022/05/02 01:33:53;;;;;;;16.70;11.70;;;12.20;99.90;;;;;;5036689;28;20563;-74
2022/05/02 01:36:20;;;;;;;18.05;11.98;;;12.20;99.90;;;;;;5036677;28;20400;-76
2022/05/02 01:38:46;;;;;;;19.27;13.40;;;12.10;99.90;;;;;;5036585;28;20117;-72
2022/05/02 01:41:12;;;;;;;14.70;11.05;;;12.10;99.90;;;;;;5036610;28;20056;-78
2022/05/02 01:43:39;;;;;;;25.40;12.68;;;12.20;99.90;;;;;;5036552;28;20026;-74
2022/05/02 01:46:07;;;;;;;17.75;12.25;;;12.30;99.90;;;;;;5036315;28;20033;-74
2022/05/02 01:48:33;;;;;;;17.05;12.23;;;12.30;99.90;;;;;;5036392;28;20108;-73
2022/05/02 01:50:59;;;;;;;17.60;12.68;;;12.20;99.90;;;;;;5036354;28;20057;-75
2022/05/02 01:53:26;;;;;;;19.88;13.85;;;12.20;99.90;;;;;;5036583;28;20029;-75
2022/05/02 01:55:52;;;;;;;17.45;12.30;;;12.30;99.90;;;;;;5036230;28;20075;-73
2022/05/02 01:58:18;;;;;;;18.35;13.00;;;12.20;99.90;;;;;;5036187;28;20109;-70
2022/05/02 02:00:44;;;;;;;19.70;14.68;;;12.30;99.90;;;;;;5036187;28;20079;-74
2022/05/02 02:03:10;;;;;;;18.75;13.60;;;12.20;99.90;;;;;;5036724;28;20021;-74
2022/05/02 02:05:51;;;;;;;18.23;13.23;;;12.30;99.90;;;;;;5036072;28;20364;-75
2022/05/02 02:08:22;;;;;;;18.13;13.23;;;12.30;99.90;;;;;;5036252;28;20023;-75
2022/05/02 02:10:50;;;;;;;20.15;13.82;;;12.10;99.90;;;;;;5035980;28;20021;-76
2022/05/02 02:13:16;;;;;;;20.63;15.23;;;12.00;99.90;;;;;;5035945;28;20030;-73
2022/05/02 02:15:43;;;;;;;23.17;16.08;;;12.00;99.90;;;;;;5035858;28;20111;-74
2022/05/02 02:18:09;;;;;;;22.98;16.40;;;12.00;99.90;;;;;;5036194;28;20028;-71
2022/05/02 02:20:35;;;;;;;22.98;15.85;;;12.10;99.90;;;;;;5036086;28;20030;-74
2022/05/02 02:23:00;;;;;;;22.08;15.48;;;12.20;99.90;;;;;;5035953;28;20101;-76
2022/05/02 02:25:26;;;;;;;23.98;16.58;;;12.20;99.90;;;;;;5035711;28;20038;-73
2022/05/02 02:27:53;;;;;;;23.98;16.52;;;12.20;99.90;;;;;;5035594;28;20029;-74
2022/05/02 02:30:19;;;;;;;24.20;16.95;;;12.20;99.90;;;;;;5017910;28;20017;-71
2022/05/02 02:32:45;;;;;;;23.98;16.63;;;12.20;99.90;;;;;;5036166;28;20097;-74
2022/05/02 02:35:11;;;;;;;23.80;16.95;;;12.30;99.90;;;;;;5035574;28;20025;-73
2022/05/02 02:37:37;;;;;;;24.27;16.52;;;12.20;99.90;;;;;;5035573;28;20386;-75
2022/05/02 02:40:03;;;;;;;23.23;17.30;;;12.20;99.90;;;;;;5035405;28;20025;-74
2022/05/02 02:42:29;;;;;;;23.60;16.55;;;12.20;99.90;;;;;;5034784;28;20025;-76
2022/05/02 02:44:55;;;;;;;22.35;16.48;;;12.30;99.90;;;;;;5035815;28;20075;-74
2022/05/02 02:47:21;;;;;;;22.02;15.98;;;12.20;99.90;;;;;;5035501;28;20374;-73
2022/05/02 02:49:46;;;;;;;24.75;17.85;;;12.30;99.90;;;;;;5035198;28;20025;-73
2022/05/02 02:52:12;;;;;;;23.38;16.67;;;12.20;99.90;;;;;;5035199;28;20492;-75
2022/05/02 02:54:37;;;;;;;23.90;16.58;;;12.30;99.90;;;;;;5035191;28;20059;-75
2022/05/02 02:57:03;;;;;;;28.98;18.70;;;12.20;99.90;;;;;;5035113;28;20029;-70
2022/05/02 02:59:29;;;;;;;25.98;19.58;;;12.10;99.90;;;;;;5035628;28;20104;-73
2022/05/02 03:01:56;;;;;;;27.17;19.63;;;12.00;99.90;;;;;;5035058;28;20037;-72
2022/05/02 03:07:07;;;;;;;30.27;17.90;;;12.10;99.90;;;;;;5035008;28;20032;-72
2022/05/02 03:09:33;;;;;;;25.65;18.95;;;12.10;99.90;;;;;;5034904;28;20168;-73
2022/05/02 03:11:59;;;;;;;23.42;17.25;;;12.00;99.90;;;;;;5033563;28;20056;-71
2022/05/02 03:14:25;;;;;;;26.33;17.65;;;12.00;99.90;;;;;;5034824;28;20028;-74
2022/05/02 03:16:50;;;;;;;25.27;17.75;;;12.10;99.90;;;;;;5034701;28;20075;-75
2022/05/02 03:19:16;;;;;;;24.17;17.08;;;12.00;99.90;;;;;;5034758;28;20037;-76
2022/05/02 03:21:42;;;;;;;24.95;17.65;;;12.10;99.90;;;;;;5034656;28;20021;-76
2022/05/02 03:24:07;;;;;;;26.02;17.00;;;12.10;99.90;;;;;;5034466;28;20049;-71
2022/05/02 03:26:33;;;;;;;25.10;17.45;;;12.00;99.90;;;;;;5034482;28;20071;-73
2022/05/02 03:28:59;;;;;;;26.13;18.08;;;12.00;99.90;;;;;;5034816;28;20022;-76
2022/05/02 03:31:25;;;;;;;25.98;17.55;;;12.10;99.90;;;;;;5035040;28;20028;-74
2022/05/02 03:33:51;;;;;;;25.65;17.08;;;12.00;99.90;;;;;;5034737;28;20512;-76
2022/05/02 03:36:16;;;;;;;24.02;15.85;;;12.00;99.90;;;;;;5034379;28;20025;-74
2022/05/02 03:38:42;;;;;;;23.25;15.98;;;12.00;99.90;;;;;;5034329;28;20064;-72
2022/05/02 03:41:07;;;;;;;22.80;16.42;;;11.90;99.90;;;;;;5034580;28;20025;-73
2022/05/02 03:43:34;;;;;;;22.95;16.60;;;11.90;99.90;;;;;;5034288;28;20104;-73
2022/05/02 03:46:00;;;;;;;22.67;17.23;;;11.90;99.90;;;;;;5034454;28;20026;-74
2022/05/02 03:48:26;;;;;;;25.40;16.98;;;11.90;99.90;;;;;;5034385;28;20036;-76
2022/05/02 03:50:53;;;;;;;23.27;15.93;;;11.80;99.90;;;;;;5034123;28;20022;-74
2022/05/02 03:53:19;;;;;;;23.90;15.27;;;11.80;99.90;;;;;;5034047;28;20026;-76
2022/05/02 03:55:45;;;;;;;24.30;15.90;;;11.70;99.90;;;;;;5033834;28;20096;-73
2022/05/02 03:58:11;;;;;;;22.23;15.70;;;11.80;99.90;;;;;;5033998;28;20025;-74
2022/05/02 04:00:37;;;;;;;22.48;15.35;;;11.70;99.90;;;;;;5034179;28;20036;-72
2022/05/02 04:03:04;;;;;;;21.33;14.90;;;11.70;99.90;;;;;;5033884;28;20025;-72
2022/05/02 04:05:29;;;;;;;20.48;14.98;;;11.60;99.90;;;;;;5016124;28;20407;-71
2022/05/02 04:07:55;;;;;;;21.30;14.98;;;11.60;99.90;;;;;;5033666;28;20116;-73
2022/05/02 04:10:21;;;;;;;21.95;14.23;;;11.60;99.90;;;;;;5034001;28;20029;-74
2022/05/02 04:12:47;;;;;;;24.73;15.88;;;11.70;99.90;;;;;;5015950;28;20029;-74
2022/05/02 04:15:13;;;;;;;26.48;17.23;;;11.70;99.90;;;;;;5033587;28;20014;-74
2022/05/02 04:17:40;;;;;;;22.63;15.23;;;11.60;99.90;;;;;;5032338;28;20082;-74
2022/05/02 04:20:06;;;;;;;23.13;15.38;;;11.60;99.90;;;;;;5033596;28;20440;-74
2022/05/02 04:22:32;;;;;;;25.58;16.15;;;11.60;99.90;;;;;;5033771;28;20087;-71
2022/05/02 04:24:58;;;;;;;23.23;15.18;;;11.50;99.90;;;;;;5033343;28;20037;-75
2022/05/02 04:27:23;;;;;;;19.17;13.63;;;11.60;99.90;;;;;;5033650;28;20037;-73
2022/05/02 04:29:49;;;;;;;22.17;15.23;;;11.60;99.90;;;;;;5033703;28;20028;-73
2022/05/02 04:32:15;;;;;;;22.55;15.88;;;11.50;99.90;;;;;;5015659;28;20029;-73
2022/05/02 04:34:41;;;;;;;21.33;15.52;;;11.50;99.90;;;;;;5033638;28;20018;-73
2022/05/02 04:37:07;;;;;;;22.42;15.43;;;11.50;99.90;;;;;;5033591;28;20033;-74
2022/05/02 04:39:33;;;;;;;21.27;16.00;;;11.40;99.90;;;;;;5033321;28;20018;-75
2022/05/02 04:41:59;;;;;;;24.48;16.17;;;11.40;99.90;;;;;;5033320;28;20026;-74
2022/05/02 04:44:24;;;;;;;23.23;16.20;;;11.50;99.90;;;;;;5033263;28;20125;-76
2022/05/02 04:46:50;;;;;;;23.55;16.23;;;11.50;99.90;;;;;;5033390;28;20029;-75
2022/05/02 04:49:16;;;;;;;24.65;16.95;;;11.40;99.90;;;;;;5033450;28;20022;-75
2022/05/02 04:51:41;;;;;;;27.00;16.40;;;11.40;99.90;;;;;;5033426;28;20056;-74
2022/05/02 04:54:07;;;;;;;29.60;18.73;;;11.40;99.90;;;;;;5033354;28;20100;-72
2022/05/02 04:56:33;;;;;;;24.70;17.48;;;11.40;99.90;;;;;;5033105;28;20095;-73
2022/05/02 04:58:58;;;;;;;22.88;17.08;;;11.40;99.90;;;;;;5033098;28;20408;-74
2022/05/02 05:01:24;;;;;;;24.50;16.30;;;11.40;99.90;;;;;;5033017;28;20525;-72
2022/05/02 05:03:50;;;;;;;25.67;17.08;;;11.50;99.90;;;;;;5033053;28;20107;-74
2022/05/02 05:06:16;;;;;;;23.13;17.17;;;11.50;99.90;;;;;;5034155;28;20025;-73
2022/05/02 05:08:42;;;;;;;27.60;18.75;;;11.60;99.90;;;;;;5037189;28;20021;-72
2022/05/02 05:11:32;;;;;;;27.05;19.33;;;11.40;99.90;;;;;;5037642;28;20057;-74
2022/05/02 05:17:25;;;;;;;26.05;17.60;;;11.40;99.90;;;;;;5037053;28;20078;-74
2022/05/02 05:19:53;;;;;;;;;;;11.40;99.90;;;;;;5037411;28;20049;-75
2022/05/02 05:22:44;;;;;;;27.05;18.35;;;11.40;99.90;;;;;;5037172;28;20423;-76
2022/05/02 05:25:40;;;;;;;25.50;17.50;;;11.60;99.90;;;;;;5036529;28;20046;-76
2022/05/02 05:28:41;;;;;;;30.85;19.45;;;11.60;99.90;;;;;;5037043;28;20079;-73
2022/05/02 05:31:15;;;;;;;28.17;18.10;;;11.60;99.90;;;;;;5037048;28;20033;-74
2022/05/02 05:33:40;;;;;;;28.77;18.20;;;11.60;99.90;;;;;;5037279;28;20022;-72
2022/05/02 05:36:24;;;;;;;28.23;19.15;;;11.50;99.90;;;;;;5036892;28;20025;-73
2022/05/02 05:39:05;;;;;;;22.63;17.15;;;11.60;99.90;;;;;;5036777;28;20100;-73
2022/05/02 05:41:59;;;;;;;25.27;17.00;;;11.70;99.90;;;;;;5036824;28;20576;-73
2022/05/02 05:44:47;;;;;;;22.70;16.38;;;11.60;99.90;;;;;;5036675;28;20030;-74
2022/05/02 05:47:12;;;;;;;25.25;17.67;;;11.70;99.90;;;;;;5036885;28;20152;-74
2022/05/02 05:50:02;;;;;;;25.50;17.20;;;11.80;99.90;;;;;;5036373;28;20022;-70
2022/05/02 05:52:50;;;;;;;24.75;16.25;;;11.80;99.90;;;;;;5036980;28;20417;-74
2022/05/02 05:55:28;;;;;;;24.13;16.05;;;11.90;99.90;;;;;;5036602;28;20021;-72
2022/05/02 05:58:09;;;;;;;23.90;16.70;;;12.00;99.90;;;;;;5036278;28;20116;-73
2022/05/02 06:00:45;;;;;;;26.23;16.92;;;12.10;99.90;;;;;;5036791;28;20458;-74
2022/05/02 06:03:34;;;;;;;21.90;15.63;;;12.30;99.90;;;;;;5036169;28;20025;-72
2022/05/02 06:06:00;;;;;;;23.52;15.50;;;12.40;99.90;;;;;;5036051;28;20439;-71
2022/05/02 06:08:29;;;;;;;22.52;14.82;;;12.40;99.90;;;;;;5036095;28;20049;-77
2022/05/02 06:10:58;;;;;;;23.40;16.13;;;12.50;99.90;;;;;;5036582;28;20021;-72
2022/05/02 06:13:29;;;;;;;22.75;16.48;;;12.40;99.90;;;;;;5018175;28;20029;-76
2022/05/02 06:18:42;;;;;;;21.80;16.13;;;12.40;99.90;;;;;;5035860;28;20036;-76
2022/05/02 06:21:08;;;;;;;23.92;15.57;;;12.40;99.90;;;;;;5036131;28;20025;-74
2022/05/02 06:23:52;;;;;;;24.52;17.20;;;12.30;99.90;;;;;;5035881;28;20049;-76
2022/05/02 06:26:22;;;;;;;21.73;16.17;;;12.50;99.90;;;;;;5036021;28;20056;-72
2022/05/02 06:28:50;;;;;;;22.67;15.48;;;12.50;99.90;;;;;;5035998;28;20111;-74
2022/05/02 06:31:23;;;;;;;23.25;15.90;;;12.60;99.90;;;;;;5035923;28;20076;-75
2022/05/02 06:33:50;;;;;;;23.08;16.75;;;12.60;99.90;;;;;;5035713;28;20022;-73
2022/05/02 06:36:15;;;;;;;21.75;15.00;;;12.80;99.90;;;;;;5035578;28;20089;-76
2022/05/02 06:39:03;;;;;;;21.83;15.45;;;12.90;99.90;;;;;;5035921;28;20037;-73
2022/05/02 06:41:59;;;;;;;21.80;14.98;;;13.20;99.90;;;;;;5035891;28;20056;-74
2022/05/02 06:45:03;;;;;;;21.70;15.10;;;13.20;99.90;;;;;;5036153;28;20112;-74
2022/05/02 06:47:38;;;;;;;20.30;13.75;;;13.30;99.90;;;;;;5035792;28;20450;-75
2022/05/02 06:50:07;;;;;;;21.20;14.52;;;13.30;99.90;;;;;;5035502;28;20029;-74
2022/05/02 06:52:44;;;;;;;20.38;14.55;;;13.30;99.90;;;;;;5035650;28;20049;-73
2022/05/02 06:55:41;;;;;;;26.00;15.10;;;13.30;99.90;;;;;;5035677;28;20047;-73
2022/05/02 06:58:12;;;;;;;23.30;14.85;;;13.30;99.90;;;;;;5035550;28;20033;-72
2022/05/02 07:00:47;;;;;;;19.23;14.43;;;13.40;99.90;;;;;;5043929;28;20032;-73
2022/05/02 07:03:37;;;;;;;24.27;13.63;;;13.40;99.90;;;;;;5052553;28;20040;-73
2022/05/02 07:06:09;;;;;;;21.00;15.27;;;13.50;99.90;;;;;;5054762;28;20033;-74
2022/05/02 07:08:48;;;;;;;20.67;14.77;;;13.50;99.90;;;;;;5054917;28;20020;-73
2022/05/02 07:11:20;;;;;;;20.25;13.50;;;13.60;99.90;;;;;;5054764;28;20451;-75
2022/05/02 07:14:03;;;;;;;19.95;14.68;;;13.70;99.90;;;;;;5055245;28;20055;-77
2022/05/02 07:16:32;;;;;;;19.88;14.18;;;13.80;99.90;;;;;;5036796;28;20029;-71
2022/05/02 07:19:28;;;;;;;20.05;14.55;;;13.70;99.90;;;;;;5055071;28;20473;-72
2022/05/02 07:21:57;;;;;;;23.58;15.00;;;13.80;99.90;;;;;;5055154;28;20032;-72
2022/05/02 07:24:40;;;;;;;19.10;13.45;;;13.80;99.90;;;;;;5048843;28;20555;-72
2022/05/02 07:27:25;;;;;;;19.67;14.43;;;13.90;99.90;;;;;;5054891;28;20038;-73
2022/05/02 07:29:54;;;;;;;21.05;14.20;;;14.00;99.90;;;;;;5054371;28;20027;-72
2022/05/02 07:32:22;;;;;;;16.98;13.65;;;14.10;99.90;;;;;;5054579;28;20210;-69
2022/05/02 07:34:48;;;;;;;23.58;14.63;;;14.20;99.90;;;;;;5052669;28;20405;-73
2022/05/02 07:37:16;;;;;;;21.67;14.18;;;14.20;99.90;;;;;;5050502;28;20493;-69
2022/05/02 07:39:43;;;;;;;18.98;14.13;;;14.40;99.90;;;;;;5053673;28;20437;-75
2022/05/02 07:42:10;;;;;;;20.33;14.57;;;14.50;99.90;;;;;;5053526;28;20037;-72
2022/05/02 07:44:38;;;;;;;18.45;13.18;;;14.80;99.90;;;;;;5054365;28;20055;-71
2022/05/02 07:47:06;;;;;;;17.52;13.00;;;14.90;99.90;;;;;;5054073;28;20339;-72
2022/05/02 07:49:34;;;;;;;18.77;13.55;;;15.10;99.90;;;;;;5035886;28;20374;-73
2022/05/02 07:52:03;;;;;;;18.80;13.25;;;15.30;99.90;;;;;;5053781;28;20036;-69
2022/05/02 07:54:30;;;;;;;17.70;13.15;;;15.30;99.90;;;;;;5054137;28;20024;-70
2022/05/02 07:57:02;;;;;;;19.15;12.80;;;15.50;99.90;;;;;;5054503;28;20033;-70
2022/05/02 07:59:35;;;;;;;18.80;13.02;;;15.50;99.90;;;;;;5052996;28;20032;-71
2022/05/02 08:02:01;;;;;;;18.35;12.88;;;15.70;99.90;;;;;;5051523;28;20028;-71
2022/05/02 08:04:27;;;;;;;18.63;12.95;;;15.80;99.90;;;;;;5037693;28;20021;-71
2022/05/02 08:07:13;;;;;;;16.05;12.90;;;15.70;99.90;;;;;;5034138;28;20042;-74
2022/05/02 08:09:53;;;;;;;17.45;12.52;;;15.80;99.90;;;;;;5040893;28;20547;-75
2022/05/02 08:12:53;;;;;;;16.58;12.27;;;15.80;99.90;;;;;;5054347;28;20025;-73
2022/05/02 08:15:45;;;;;;;15.88;12.20;;;15.70;99.90;;;;;;5042193;28;20029;-74
2022/05/02 08:18:42;;;;;;;16.70;12.52;;;15.60;99.90;;;;;;5033243;28;20044;-73
2022/05/02 08:21:22;;;;;;;15.73;12.02;;;15.70;99.90;;;;;;5054169;28;20016;-71
2022/05/02 08:27:17;;;;;;;20.25;13.15;;;15.70;99.90;;;;;;5052395;28;20547;-70
2022/05/02 08:30:08;;;;;;;18.38;12.75;;;16.00;99.90;;;;;;5051146;28;20070;-71
2022/05/02 08:32:42;;;;;;;17.42;13.02;;;16.40;99.90;;;;;;5050211;28;20375;-74
2022/05/02 08:35:16;;;;;;;20.77;12.65;;;16.50;99.90;;;;;;5053969;28;20421;-72
2022/05/02 08:38:19;;;;;;;16.88;13.05;;;16.60;99.90;;;;;;5053448;28;20486;-73
2022/05/02 08:41:22;;;;;;;17.13;12.15;;;16.90;99.90;;;;;;5053043;28;20477;-71
2022/05/02 08:44:04;;;;;;;17.95;13.20;;;17.30;99.90;;;;;;5050797;28;20028;-74
2022/05/02 08:46:52;;;;;;;17.92;12.32;;;17.50;99.90;;;;;;5053350;28;20024;-70
2022/05/02 08:49:48;;;;;;;15.45;12.13;;;17.90;99.90;;;;;;5053789;28;20029;-72
2022/05/02 08:52:16;;;;;;;15.27;11.63;;;18.30;99.90;;;;;;5057044;28;20025;-71
2022/05/02 08:55:10;;;;;;;13.98;10.48;;;18.60;99.90;;;;;;5053036;28;20024;-74
2022/05/02 08:58:03;;;;;;;14.48;11.30;;;18.50;99.90;;;;;;5044538;28;20082;-73
2022/05/02 09:00:43;;;;;;;15.68;11.15;;;18.70;99.90;;;;;;5051649;28;20092;-76
2022/05/02 09:03:55;;;;;;;16.73;11.50;;;19.10;99.90;;;;;;5052607;28;20075;-73
2022/05/02 09:06:49;;;;;;;19.08;11.55;;;19.40;99.90;;;;;;5039811;28;20033;-71
2022/05/02 09:09:33;;;;;;;15.32;11.57;;;19.40;99.90;;;;;;5052373;28;20370;-73
2022/05/02 09:12:20;;;;;;;14.70;10.98;;;19.20;99.90;;;;;;5052445;28;20123;-70
2022/05/02 09:14:55;;;;;;;17.05;10.73;;;19.20;99.90;;;;;;5053226;28;20079;-73
2022/05/02 09:17:29;;;;;;;15.20;10.00;;;19.60;99.90;;;;;;5052547;28;20029;-71
2022/05/02 09:20:40;;;;;;;13.57;10.93;;;19.80;99.90;;;;;;5051346;28;20461;-74
2022/05/02 09:23:46;;;;;;;14.20;10.52;;;19.90;99.90;;;;;;5014716;28;20520;-73
2022/05/02 09:26:17;;;;;;;13.85;10.57;;;19.90;99.90;;;;;;5053571;28;20021;-75
2022/05/02 09:29:01;;;;;;;12.13;9.90;;;20.00;99.90;;;;;;5052290;28;20028;-75
2022/05/02 09:31:45;;;;;;;18.48;10.05;;;20.40;99.90;;;;;;5053129;28;20060;-71
2022/05/02 09:34:36;;;;;;;13.15;9.73;;;20.40;99.90;;;;;;5053150;28;20052;-72
2022/05/02 09:37:01;;;;;;;15.40;9.73;;;20.90;99.90;;;;;;5050630;28;20078;-70
2022/05/02 09:39:44;;;;;;;13.52;9.82;;;20.90;99.90;;;;;;5052535;28;20047;-72
2022/05/02 09:42:24;;;;;;;12.57;9.18;;;20.80;99.90;;;;;;5053044;28;20025;-71
2022/05/02 09:51:11;;;;;;;15.32;10.23;;;21.50;99.90;;;;;;5051291;28;20049;-72
2022/05/02 09:54:14;;;;;;;11.35;8.63;;;22.00;99.90;;;;;;5055905;28;20021;-70
2022/05/02 09:56:48;;;;;;;10.63;8.18;;;22.50;99.90;;;;;;5056172;28;20491;-69
2022/05/02 09:59:26;;;;;;;11.88;8.93;;;22.60;99.70;;;;;;5056185;28;20031;-70
2022/05/02 10:01:59;;;;;;;12.18;9.27;;;22.80;99.90;;;;;;5054135;28;20032;-70
2022/05/02 10:04:57;;;;;;;11.65;8.60;;;23.10;99.20;;;;;;5055572;28;20029;-74
2022/05/02 10:07:25;;;;;;;9.73;8.20;;;23.80;98.40;;;;;;5056351;28;20029;-69
2022/05/02 10:10:20;;;;;;;10.00;7.78;;;23.90;97.40;;;;;;5056570;28;20025;-70
2022/05/02 10:13:08;;;;;;;11.57;7.57;;;23.70;97.10;;;;;;5048874;28;20083;-73
2022/05/02 10:16:11;;;;;;;9.27;7.63;;;23.90;96.80;;;;;;5056415;28;20159;-71
2022/05/02 10:19:13;;;;;;;11.55;8.43;;;24.50;95.50;;;;;;5056366;28;20558;-70
2022/05/02 10:21:58;;;;;;;10.40;8.40;;;25.00;94.00;;;;;;5029748;28;20521;-73
2022/05/02 10:24:26;;;;;;;12.13;6.97;;;25.30;92.90;;;;;;5052790;28;20033;-71
2022/05/02 10:27:41;;;;;;;9.15;7.65;;;26.10;93.30;;;;;;5054645;28;20533;-72
2022/05/02 10:30:08;;;;;;;11.57;8.55;;;27.50;90.50;;;;;;4965264;28;20033;-75
2022/05/02 10:32:53;;;;;;;9.15;7.45;;;26.80;88.80;;;;;;5056402;28;20017;-71
2022/05/02 10:35:21;;;;;;;13.05;7.85;;;27.30;86.80;;;;;;5036355;28;20432;-75
2022/05/02 10:37:56;;;;;;;9.95;7.80;;;27.00;90.00;;;;;;5056358;28;20053;-71
2022/05/02 10:40:34;;;;;;;9.32;6.97;;;27.40;86.50;;;;;;5054977;28;20024;-73
2022/05/02 10:43:03;;;;;;;9.80;6.63;;;28.50;84.60;;;;;;5053809;28;20043;-71
2022/05/02 10:45:36;;;;;;;8.00;6.18;;;29.50;82.50;;;;;;5055114;28;20112;-71
2022/05/02 10:48:43;;;;;;;8.40;5.70;;;30.60;80.90;;;;;;5037319;28;20056;-74
2022/05/02 10:51:41;;;;;;;7.55;6.20;;;30.60;77.20;;;;;;5042178;28;20036;-70
2022/05/02 10:54:27;;;;;;;8.68;5.93;;;30.80;72.60;;;;;;5055879;28;20036;-71
2022/05/02 10:56:59;;;;;;;7.90;6.35;;;31.30;72.20;;;;;;5055275;28;20481;-69
2022/05/02 10:59:29;;;;;;;7.97;5.90;;;30.70;69.40;;;;;;5055768;28;20048;-71
2022/05/02 11:02:22;;;;;;;8.88;5.95;;;30.60;69.20;;;;;;5055145;28;20013;-68
2022/05/02 11:05:10;;;;;;;7.57;6.00;;;30.20;69.20;;;;;;5054474;28;20056;-68
2022/05/02 11:07:55;;;;;;;6.55;5.57;;;30.00;69.00;;;;;;5036904;28;20013;-71
2022/05/02 11:10:29;;;;;;;8.43;5.88;;;30.10;68.00;;;;;;5055347;28;20021;-70
2022/05/02 11:13:20;;;;;;;8.38;5.72;;;30.00;66.30;;;;;;5055261;28;20029;-70
2022/05/02 11:15:59;;;;;;;7.43;5.22;;;30.40;68.30;;;;;;5054808;28;20025;-68
2022/05/02 11:21:40;;;;;;;11.00;5.53;;;29.00;67.60;;;;;;5054584;28;20063;-68
2022/05/02 11:24:21;;;;;;;9.80;6.70;;;28.70;67.50;;;;;;5054830;28;20429;-69
2022/05/02 11:27:06;;;;;;;8.45;5.82;;;28.50;66.90;;;;;;5054897;28;20494;-69
2022/05/02 11:30:02;;;;;;;10.30;5.90;;;29.10;66.90;;;;;;5004452;28;20108;-73
2022/05/02 11:33:05;;;;;;;10.25;5.72;;;29.00;67.20;;;;;;5055124;28;20024;-70
2022/05/02 11:35:33;;;;;;;6.95;6.05;;;29.50;66.10;;;;;;5018174;28;20036;-69
2022/05/02 11:38:17;;;;;;;9.35;6.03;;;28.10;67.30;;;;;;5054735;28;20466;-69
2022/05/02 11:40:50;;;;;;;10.43;6.32;;;27.10;67.30;;;;;;5054349;28;20025;-70
2022/05/02 11:43:21;;;;;;;8.15;5.63;;;26.00;70.30;;;;;;5054859;28;20120;-70
2022/05/02 11:46:02;;;;;;;9.63;7.05;;;25.70;68.00;;;;;;5054414;28;20021;-71
2022/05/02 11:48:58;;;;;;;7.90;6.00;;;25.40;68.60;;;;;;5054209;28;20025;-68
2022/05/02 11:51:29;;;;;;;9.02;6.85;;;26.30;69.50;;;;;;5054511;28;20021;-71
2022/05/02 11:53:58;;;;;;;11.32;6.45;;;25.60;70.90;;;;;;5054605;28;20028;-69
2022/05/02 11:56:36;;;;;;;9.38;6.45;;;25.60;73.10;;;;;;5054114;28;20017;-72
2022/05/02 11:59:05;;;;;;;9.10;7.00;;;26.30;71.00;;;;;;5035859;28;20471;-70
2022/05/02 12:01:37;;;;;;;9.50;7.15;;;25.80;70.10;;;;;;5054002;28;20027;-69
2022/05/02 12:04:04;;;;;;;8.52;6.57;;;25.20;73.10;;;;;;5054011;28;20436;-71
2022/05/02 12:06:38;;;;;;;8.48;6.50;;;25.50;72.70;;;;;;5053838;28;20108;-69
2022/05/02 12:09:04;;;;;;;10.13;6.85;;;26.30;70.30;;;;;;5035729;28;20393;-70
2022/05/02 12:11:30;;;;;;;10.18;6.60;;;26.50;71.10;;;;;;5053847;28;20025;-69
2022/05/02 12:13:58;;;;;;;11.07;7.32;;;26.30;71.90;;;;;;5053804;28;20551;-69
2022/05/02 12:16:27;;;;;;;10.75;6.40;;;25.60;72.90;;;;;;5053519;28;20021;-72
2022/05/02 12:18:57;;;;;;;11.05;7.70;;;24.20;75.30;;;;;;5053642;28;20131;-68
2022/05/02 12:21:41;;;;;;;9.05;6.85;;;23.50;77.90;;;;;;5054143;28;20024;-69
2022/05/02 12:24:09;;;;;;;15.98;7.70;;;22.90;79.10;;;;;;5053776;28;20037;-68
2022/05/02 12:26:50;;;;;;;10.82;7.28;;;22.40;79.20;;;;;;5053768;28;20037;-71
2022/05/02 12:29:19;;;;;;;9.07;7.28;;;22.30;81.00;;;;;;5053572;28;20384;-71
2022/05/02 12:31:56;;;;;;;10.02;7.38;;;22.30;81.80;;;;;;5053538;28;20044;-69
2022/05/02 12:34:34;;;;;;;10.05;7.18;;;22.70;81.20;;;;;;5053799;28;20017;-67
2022/05/02 12:37:14;;;;;;;8.00;6.22;;;23.20;79.80;;;;;;5053737;28;20074;-71
2022/05/02 12:39:50;;;;;;;9.85;7.05;;;23.90;78.40;;;;;;5053713;28;20032;-70
2022/05/02 12:42:20;;;;;;;9.02;6.80;;;24.10;74.80;;;;;;5053371;28;20400;-70
2022/05/02 12:44:57;;;;;;;9.45;6.75;;;23.70;78.00;;;;;;5053591;28;20465;-70
2022/05/02 12:47:25;;;;;;;10.43;6.82;;;23.00;78.70;;;;;;5053498;28;20025;-74
2022/05/02 12:49:59;;;;;;;8.77;6.35;;;22.60;81.00;;;;;;5053797;28;20021;-69
2022/05/02 12:52:28;;;;;;;9.30;5.95;;;22.50;77.60;;;;;;5053507;28;20078;-69
2022/05/02 12:54:54;;;;;;;8.43;6.33;;;22.30;79.40;;;;;;5053487;28;20044;-68
2022/05/02 13:00:32;;;;;;;;;;;22.80;80.20;;;;;;5053941;28;20128;-70
2022/05/02 13:03:27;;;;;;;7.88;6.25;;;22.60;79.80;;;;;;5053215;28;19905;-69
2022/05/02 13:05:54;;;;;;;8.50;6.13;;;22.80;80.00;;;;;;5050347;28;20444;-70
2022/05/02 13:08:41;;;;;;;8.52;6.10;;;22.50;79.70;;;;;;5052997;28;20033;-69
2022/05/02 13:11:20;;;;;;;10.38;6.97;;;22.90;81.50;;;;;;5053046;28;20013;-69
2022/05/02 13:13:52;;;;;;;8.82;5.93;;;23.70;77.30;;;;;;5053638;28;20021;-71
2022/05/02 13:16:29;;;;;;;8.05;6.10;;;24.00;76.00;;;;;;5053104;28;20021;-68
2022/05/02 13:18:58;;;;;;;8.65;6.22;;;23.80;75.90;;;;;;5053156;28;20428;-69
2022/05/02 13:21:24;;;;;;;7.37;5.83;;;23.70;75.50;;;;;;5052944;28;20021;-67
2022/05/02 13:24:10;;;;;;;9.40;6.57;;;23.30;76.90;;;;;;5052692;28;20494;-67
2022/05/02 13:27:04;;;;;;;8.90;6.15;;;23.40;79.20;;;;;;5053122;28;20115;-70
2022/05/02 13:29:48;;;;;;;10.30;6.70;;;23.50;79.40;;;;;;5057023;28;20086;-69
2022/05/02 13:32:26;;;;;;;8.07;6.22;;;23.30;79.80;;;;;;5057151;28;20028;-71
2022/05/02 13:35:12;;;;;;;9.50;6.50;;;23.10;81.50;;;;;;5057394;28;20017;-69
2022/05/02 13:37:50;;;;;;;9.27;6.63;;;22.70;82.10;;;;;;5057327;28;20034;-72